createdAt,value
2019-05-13T09:03:27.906Z,97089.19
2019-05-13T09:06:01.979Z,97083.48
2019-05-13T09:08:34.840Z,97093.72
2019-05-13T09:11:07.675Z,97093.70
2019-05-13T09:13:42.129Z,97091.39
2019-05-13T09:16:13.503Z,97100.95
2019-05-13T09:18:45.050Z,97102.02
2019-05-13T09:21:19.218Z,97110.30
2019-05-13T09:23:51.535Z,97100.18
2019-05-13T09:26:24.324Z,97104.47
2019-05-13T09:29:17.881Z,97102.89
2019-05-13T09:31:52.097Z,97103.31
2019-05-13T09:34:23.950Z,97112.73
2019-05-13T09:36:55.786Z,97123.09
2019-05-13T09:39:34.074Z,97124.47
2019-05-13T09:42:12.723Z,97117.78
2019-05-13T09:44:43.598Z,97115.12
2019-05-13T09:47:18.606Z,97116.08
2019-05-13T09:49:51.285Z,97126.20
2019-05-13T09:52:24.149Z,97124.93
2019-05-13T09:54:56.627Z,97137.05
2019-05-13T09:57:28.084Z,97138.14
2019-05-13T10:00:03.642Z,97142.06
2019-05-13T10:02:36.692Z,97146.59
2019-05-13T10:05:13.286Z,97141.25
2019-05-13T10:07:46.245Z,97142.70
2019-05-13T10:10:19.565Z,97143.08
2019-05-13T10:13:08.030Z,97134.39
2019-05-13T10:15:25.158Z,97147.61
2019-05-13T10:17:58.561Z,97158.81
2019-05-13T10:21:10.971Z,97159.32
2019-05-13T10:23:58.072Z,97160.34
2019-05-13T10:26:26.946Z,97164.61
2019-05-13T10:28:58.623Z,97154.22
2019-05-13T10:31:32.002Z,97161.89
2019-05-13T10:34:05.030Z,97145.63
2019-05-13T10:36:36.906Z,97142.78
2019-05-13T10:39:11.756Z,97160.27
2019-05-13T10:41:44.573Z,97150.27
2019-05-13T10:44:17.667Z,97162.17
2019-05-13T10:46:51.987Z,97161.58
2019-05-13T10:49:23.434Z,97157.86
2019-05-13T10:51:58.361Z,97160.31
2019-05-13T10:54:32.285Z,97148.95
2019-05-13T10:57:04.172Z,97154.08
2019-05-13T10:59:39.293Z,97157.58
2019-05-13T11:02:14.974Z,97169.29
2019-05-13T11:04:47.918Z,97165.19
2019-05-13T11:07:22.427Z,97174.99
2019-05-13T11:09:57.371Z,97170.41
2019-05-13T11:12:30.473Z,97179.50
2019-05-13T11:15:02.749Z,97183.86
2019-05-13T11:17:34.500Z,97180.94
2019-05-13T11:20:12.248Z,97185.23
2019-05-13T11:22:42.991Z,97186.81
2019-05-13T11:25:17.047Z,97181.62
2019-05-13T11:27:52.404Z,97181.29
2019-05-13T11:30:24.565Z,97184.02
2019-05-13T11:32:57.738Z,97185.22
2019-05-13T11:35:32.010Z,97191.27
2019-05-13T11:38:06.160Z,97199.16
2019-05-13T11:40:37.602Z,97198.42
2019-05-13T11:43:12.130Z,97186.52
2019-05-13T11:45:42.796Z,97195.72
2019-05-13T11:48:15.314Z,97189.80
2019-05-13T11:50:50.442Z,97188.95
2019-05-13T11:53:32.756Z,97185.77
2019-05-13T11:56:03.236Z,97185.83
2019-05-13T11:58:34.670Z,97184.27
2019-05-13T12:01:07.674Z,97191.51
2019-05-13T12:03:39.155Z,97182.97
2019-05-13T12:06:13.450Z,97179.50
2019-05-13T12:08:52.107Z,97148.42
2019-05-13T12:11:22.411Z,97175.16
2019-05-13T12:13:53.439Z,97180.16
2019-05-13T12:16:26.501Z,97184.59
2019-05-13T12:19:03.113Z,97190.50
2019-05-13T12:21:33.288Z,97192.80
2019-05-13T12:24:11.046Z,97193.13
2019-05-13T12:26:43.333Z,97191.97
2019-05-13T12:29:18.915Z,97191.34
2019-05-13T12:31:48.471Z,97193.11
2019-05-13T12:34:22.816Z,97188.13
2019-05-13T12:36:55.643Z,97189.73
2019-05-13T12:39:26.994Z,97197.09
2019-05-13T12:42:03.323Z,97187.44
2019-05-13T12:44:33.764Z,97180.42
2019-05-13T12:47:06.694Z,97190.00
2019-05-13T12:49:38.127Z,97180.75
2019-05-13T12:52:13.090Z,97181.37
2019-05-13T12:54:44.108Z,97176.42
2019-05-13T12:57:16.704Z,97172.61
2019-05-13T12:59:49.417Z,97171.84
2019-05-13T13:02:22.651Z,97171.93
2019-05-13T13:05:10.735Z,97164.77
2019-05-13T13:07:40.801Z,97177.66
2019-05-13T13:10:07.706Z,97166.66
2019-05-13T13:12:42.091Z,97165.99
2019-05-13T13:15:35.877Z,97167.80
2019-05-13T13:17:54.013Z,97157.97
2019-05-13T13:20:24.966Z,97150.30
2019-05-13T13:22:56.589Z,97155.98
2019-05-13T13:25:29.379Z,97153.11
2019-05-13T13:28:11.320Z,97154.49
2019-05-13T13:30:43.872Z,97158.62
2019-05-13T13:33:15.715Z,97163.46
2019-05-13T13:35:58.842Z,97163.43
2019-05-13T13:38:25.134Z,97177.11
2019-05-13T13:40:58.767Z,97175.87
2019-05-13T13:43:36.457Z,97180.62
2019-05-13T13:46:13.629Z,97186.06
2019-05-13T13:48:39.141Z,97189.56
2019-05-13T13:51:14.544Z,97205.28
2019-05-13T13:53:47.934Z,97203.25
2019-05-13T13:56:25.401Z,97197.41
2019-05-13T13:58:54.499Z,97203.25
2019-05-13T14:01:28.778Z,97194.26
2019-05-13T14:04:03.819Z,97191.73
2019-05-13T14:09:12.913Z,97184.06
2019-05-13T14:11:45.193Z,97190.42
2019-05-13T14:14:16.621Z,97189.43
2019-05-13T14:16:51.634Z,97186.78
2019-05-13T14:19:23.348Z,97192.95
2019-05-13T14:21:55.436Z,97210.50
2019-05-13T14:24:28.271Z,97209.50
2019-05-13T14:27:02.808Z,97210.89
2019-05-13T14:29:40.637Z,97207.97
2019-05-13T14:32:09.702Z,97207.11
2019-05-13T14:34:42.209Z,97206.27
2019-05-13T14:37:13.928Z,97203.55
2019-05-13T14:39:45.755Z,97206.75
2019-05-13T14:42:17.218Z,97201.69
2019-05-13T14:44:48.659Z,97200.91
2019-05-13T14:47:21.778Z,97199.02
2019-05-13T14:49:55.056Z,97195.61
2019-05-13T14:52:28.064Z,97197.19
2019-05-13T14:55:02.220Z,97192.42
2019-05-13T14:58:01.614Z,97190.10
2019-05-13T15:00:36.650Z,97186.52
2019-05-13T15:03:13.106Z,97190.66
2019-05-13T15:05:46.547Z,97187.77
2019-05-13T15:08:23.202Z,97205.58
2019-05-13T15:10:55.702Z,97199.21
2019-05-13T15:13:27.526Z,97202.30
2019-05-13T15:16:01.285Z,97204.34
2019-05-13T15:18:33.373Z,97200.50
2019-05-13T15:21:05.282Z,97204.27
2019-05-13T15:23:36.903Z,97196.80
2019-05-13T15:26:08.582Z,97204.85
2019-05-13T15:29:04.996Z,97209.48
2019-05-13T15:31:37.049Z,97204.36
2019-05-13T15:34:08.498Z,97202.44
2019-05-13T15:36:41.949Z,97202.63
2019-05-13T15:39:13.857Z,97208.39
2019-05-13T15:41:45.932Z,97202.45
2019-05-13T15:44:18.832Z,97190.28
2019-05-13T15:46:53.173Z,97188.27
2019-05-13T15:49:27.770Z,97193.16
2019-05-13T15:52:01.727Z,97201.29
2019-05-13T15:54:33.551Z,97203.53
2019-05-13T15:57:05.376Z,97197.19
2019-05-13T15:59:41.356Z,97208.77
2019-05-13T16:02:13.467Z,97212.48
2019-05-13T16:04:52.571Z,97205.33
2019-05-13T16:07:20.878Z,97211.61
2019-05-13T16:09:52.822Z,97209.73
2019-05-13T16:12:27.187Z,97216.93
2019-05-13T16:15:01.985Z,97210.43
2019-05-13T16:17:41.141Z,97222.53
2019-05-13T16:20:09.278Z,97211.47
2019-05-13T16:22:42.016Z,97215.53
2019-05-13T16:25:19.004Z,97204.44
2019-05-13T16:27:51.996Z,97201.52
2019-05-13T16:30:26.045Z,97202.73
2019-05-13T16:32:59.056Z,97201.52
2019-05-13T16:35:32.054Z,97205.23
2019-05-13T16:38:06.463Z,97210.03
2019-05-13T16:40:39.191Z,97221.45
2019-05-13T16:43:12.892Z,97225.66
2019-05-13T16:45:52.180Z,97234.99
2019-05-13T16:48:26.150Z,97233.59
2019-05-13T16:51:21.561Z,97230.16
2019-05-13T16:53:55.921Z,97235.09
2019-05-13T16:56:30.996Z,97247.04
2019-05-13T16:59:02.051Z,97250.83
2019-05-13T17:01:34.897Z,97256.95
2019-05-13T17:04:07.109Z,97254.19
2019-05-13T17:06:38.587Z,97259.88
2019-05-13T17:09:12.440Z,97258.77
2019-05-13T17:11:44.017Z,97262.99
2019-05-13T17:14:15.519Z,97263.06
2019-05-13T17:16:47.486Z,97265.13
2019-05-13T17:19:19.030Z,97260.94
2019-05-13T17:21:52.011Z,97261.75
2019-05-13T17:24:23.817Z,97263.59
2019-05-13T17:26:55.269Z,97264.20
2019-05-13T17:29:27.940Z,97264.20
2019-05-13T17:32:02.471Z,97276.69
2019-05-13T17:34:33.937Z,97269.06
2019-05-13T17:37:08.133Z,97272.84
2019-05-13T17:39:41.515Z,97269.73
2019-05-13T17:42:12.965Z,97276.64
2019-05-13T17:44:47.206Z,97278.20
2019-05-13T17:47:21.733Z,97286.13
2019-05-13T17:50:14.724Z,97299.40
2019-05-13T17:52:46.353Z,97302.05
2019-05-13T17:55:18.290Z,97298.08
2019-05-13T17:57:51.487Z,97302.56
2019-05-13T18:00:23.288Z,97307.38
2019-05-13T18:02:56.387Z,97295.95
2019-05-13T18:05:31.466Z,97289.62
2019-05-13T18:08:02.900Z,97268.52
2019-05-13T18:10:34.924Z,97270.94
2019-05-13T18:13:07.688Z,97277.59
2019-05-13T18:15:40.624Z,97285.27
2019-05-13T18:18:14.715Z,97288.48
2019-05-13T18:20:46.523Z,97302.53
2019-05-13T18:23:17.949Z,97319.70
2019-05-13T18:25:51.456Z,97330.80
2019-05-13T18:28:30.892Z,97330.57
2019-05-13T18:31:01.774Z,97323.93
2019-05-13T18:33:34.177Z,97323.44
2019-05-13T18:36:05.629Z,97314.98
2019-05-13T18:38:37.502Z,97327.14
2019-05-13T18:41:09.126Z,97329.78
2019-05-13T18:43:41.773Z,97326.08
2019-05-13T18:46:13.602Z,97326.08
2019-05-13T18:48:58.195Z,97336.64
2019-05-13T18:51:21.150Z,97344.05
2019-05-13T18:53:53.475Z,97339.34
2019-05-13T18:56:25.558Z,97349.37
2019-05-13T18:58:57.295Z,97355.93
2019-05-13T19:01:31.950Z,97361.00
2019-05-13T19:04:04.948Z,97364.67
2019-05-13T19:06:37.214Z,97354.91
2019-05-13T19:09:11.201Z,97362.82
2019-05-13T19:11:43.683Z,97366.04
2019-05-13T19:14:16.488Z,97357.83
2019-05-13T19:16:48.645Z,97356.25
2019-05-13T19:19:24.673Z,97354.13
2019-05-13T19:21:58.118Z,97359.15
2019-05-13T19:24:31.384Z,97364.96
2019-05-13T19:27:03.425Z,97365.75
2019-05-13T19:29:38.093Z,97370.77
2019-05-13T19:32:12.459Z,97383.72
2019-05-13T19:34:45.496Z,97373.41
2019-05-13T19:37:17.124Z,97361.02
2019-05-13T19:39:50.074Z,97359.44
2019-05-13T19:42:22.319Z,97363.92
2019-05-13T19:44:53.875Z,97383.19
2019-05-13T19:47:26.431Z,97383.20
2019-05-13T19:49:58.521Z,97383.72
2019-05-13T19:52:32.102Z,97394.53
2019-05-13T19:55:07.130Z,97396.64
2019-05-13T19:57:38.855Z,97400.33
2019-05-13T20:00:14.275Z,97403.77
2019-05-13T20:02:48.475Z,97403.48
2019-05-13T20:05:21.184Z,97399.30
2019-05-13T20:07:55.666Z,97406.16
2019-05-13T20:10:27.082Z,97394.81
2019-05-13T20:13:01.806Z,97396.13
2019-05-13T20:15:35.879Z,97400.38
2019-05-13T20:18:11.960Z,97414.61
2019-05-13T20:20:43.484Z,97409.87
2019-05-13T20:23:36.056Z,97405.39
2019-05-13T20:26:08.324Z,97416.48
2019-05-13T20:28:41.958Z,97417.78
2019-05-13T20:31:14.416Z,97414.63
2019-05-13T20:33:47.724Z,97416.22
2019-05-13T20:36:22.186Z,97416.20
2019-05-13T20:38:54.442Z,97420.67
2019-05-13T20:41:27.657Z,97421.99
2019-05-13T20:44:02.185Z,97429.66
2019-05-13T20:46:35.810Z,97423.86
2019-05-13T20:49:12.014Z,97416.98
2019-05-13T20:51:43.169Z,97424.92
2019-05-13T20:54:15.262Z,97416.72
2019-05-13T20:56:47.303Z,97424.92
2019-05-13T20:59:21.345Z,97417.78
2019-05-13T21:01:53.614Z,97409.07
2019-05-13T21:04:26.866Z,97422.53
2019-05-13T21:07:02.143Z,97419.11
2019-05-13T21:09:35.723Z,97425.46
2019-05-13T21:12:08.713Z,97423.09
2019-05-13T21:14:42.085Z,97422.84
2019-05-13T21:17:13.993Z,97436.30
2019-05-13T21:19:47.556Z,97433.39
2019-05-13T21:22:21.100Z,97430.20
2019-05-13T21:24:53.264Z,97422.53
2019-05-13T21:27:26.903Z,97422.53
2019-05-13T21:30:01.228Z,97419.89
2019-05-13T21:32:34.609Z,97422.55
2019-05-13T21:35:07.461Z,97424.66
2019-05-13T21:37:39.137Z,97421.23
2019-05-13T21:40:11.940Z,97420.70
2019-05-13T21:42:44.570Z,97420.44
2019-05-13T21:45:16.457Z,97420.70
2019-05-13T21:47:49.099Z,97412.52
2019-05-13T21:50:33.119Z,97414.11
2019-05-13T21:52:55.947Z,97411.72
2019-05-13T21:55:29.386Z,97410.91
2019-05-13T21:58:03.126Z,97406.98
2019-05-13T22:00:41.679Z,97407.52
2019-05-13T22:03:14.029Z,97402.78
2019-05-13T22:05:45.692Z,97409.65
2019-05-13T22:08:18.019Z,97410.97
2019-05-13T22:13:34.035Z,97416.77
2019-05-13T22:16:05.607Z,97420.45
2019-05-13T22:18:38.096Z,97417.04
2019-05-13T22:21:11.819Z,97408.85
2019-05-13T22:23:43.546Z,97409.39
2019-05-13T22:26:16.873Z,97405.41
2019-05-13T22:28:48.268Z,97400.40
2019-05-13T22:31:22.254Z,97403.03
2019-05-13T22:33:54.246Z,97385.90
2019-05-13T22:36:25.906Z,97383.77
2019-05-13T22:38:57.548Z,97387.74
2019-05-13T22:41:31.493Z,97388.78
2019-05-13T22:44:03.226Z,97391.70
2019-05-13T22:46:36.067Z,97402.25
2019-05-13T22:49:08.786Z,97409.63
2019-05-13T22:51:41.402Z,97397.50
2019-05-13T22:54:13.426Z,97396.95
2019-05-13T22:56:48.087Z,97381.39
2019-05-13T22:59:21.459Z,97383.52
2019-05-13T23:01:53.406Z,97379.55
2019-05-13T23:04:25.885Z,97382.47
2019-05-13T23:06:57.890Z,97384.30
2019-05-13T23:09:32.124Z,97384.05
2019-05-13T23:12:03.783Z,97377.70
2019-05-13T23:14:35.196Z,97375.59
2019-05-13T23:17:12.419Z,97361.34
2019-05-13T23:19:44.974Z,97343.40
2019-05-13T23:22:20.219Z,97339.72
2019-05-13T23:25:13.254Z,97343.42
2019-05-13T23:27:51.278Z,97347.63
2019-05-13T23:30:22.990Z,97346.30
2019-05-13T23:32:55.546Z,97355.56
2019-05-13T23:35:27.513Z,97343.95
2019-05-13T23:38:01.632Z,97349.20
2019-05-13T23:40:34.577Z,97358.46
2019-05-13T23:43:11.191Z,97357.38
2019-05-13T23:45:42.688Z,97352.91
2019-05-13T23:48:15.859Z,97356.05
2019-05-13T23:50:52.068Z,97361.59
2019-05-13T23:53:26.115Z,97358.97
2019-05-13T23:55:59.132Z,97346.80
2019-05-13T23:58:32.219Z,97339.95
